Latest Weather Observations for Williamtown

IDN60801

Issued at 3:02 pm EST Sunday 30 April 2017 (issued every 30 minutes, with the page automatically refreshed every 10 minutes)

About weather observations | Map of weather stations | Latest weather observations for NSW | Other Formats
Station Details ID: 061078 Name: WILLIAMTOWN RAAF Lat: -32.79 Lon: 151.84 Height: 7.5 m
Data from the previous 72 hours. | See also: Recent months at Williamtown
Date/Time
EST
Temp
°C
App
Temp
°C
Dew
Point
°C
Rel
Hum
%
Delta-T
°C
Wind Press
QNH
hPa
Press
MSL
hPa
Rain since
9am
mm
Dir  Spd
km/h
Gust
km/h
Spd
kts
Gust
kts
30/03:00pm 21.2 18.9 14.6 66 3.9 SSE 20 28 11 15 1020.5 1020.4 0.0
30/02:30pm 22.2 19.9 14.6 62 4.5 SSE 20 30 11 16 1020.5 1020.4 0.0
30/02:00pm 21.0 18.5 13.4 62 4.3 SSE 19 26 10 14 1020.6 1020.5 0.0
30/01:30pm 20.8 18.4 14.5 67 3.7 S 20 28 11 15 1020.7 1020.6 0.0
30/01:00pm 21.9 20.1 15.5 67 3.8 S 19 30 10 16 1020.8 1020.7 0.0
30/12:30pm 20.3 18.7 14.0 67 3.6 SSW 15 20 8 11 1021.1 1021.0 0.0
30/12:00pm 21.3 18.8 14.2 64 4.1 SSW 20 30 11 16 1021.4 1021.3 0.0
30/11:30am 20.7 19.5 14.1 66 3.8 S 13 17 7 9 1021.6 1021.5 0.0
30/11:00am 20.4 19.2 14.1 67 3.6 SW 13 19 7 10 1022.0 1021.9 0.0
30/10:30am 20.5 19.9 14.6 69 3.4 SW 11 19 6 10 1022.2 1022.1 0.0
30/10:00am 19.0 17.8 14.1 73 2.8 W 13 15 7 8 1022.3 1022.2 0.0
30/09:30am 17.6 16.4 13.9 79 2.1 NW 13 17 7 9 1022.5 1022.4 0.0
30/09:00am 15.6 13.9 13.6 88 1.1 NW 15 17 8 9 1022.6 1022.5 1.4
30/08:30am 14.5 12.6 13.0 91 0.8 NW 15 19 8 10 1022.7 1022.6 1.4
30/08:00am 13.2 11.0 12.1 93 0.6 WNW 15 19 8 10 1022.7 1022.6 1.4
30/07:30am 12.8 11.0 12.0 95 0.4 NW 13 17 7 9 1022.6 1022.5 1.4
30/07:00am 12.2 10.2 11.6 96 0.3 NW 13 15 7 8 1022.3 1022.2 1.4
30/06:30am 11.9 9.8 11.1 95 0.4 NW 13 17 7 9 1022.0 1021.9 1.2
30/06:00am 12.3 9.9 11.5 95 0.4 NW 15 17 8 9 1021.7 1021.6 1.2
30/05:30am 12.4 10.1 11.6 95 0.4 NW 15 19 8 10 1021.6 1021.5 1.2
30/05:00am 12.2 10.6 11.4 95 0.4 WNW 11 15 6 8 1021.5 1021.4 0.2
30/04:30am 11.6 9.8 10.8 95 0.4 NW 11 13 6 7 1021.2 1021.1 0.2
30/04:00am 11.6 10.2 11.0 96 0.3 W 9 11 5 6 1021.0 1020.9 0.2
30/03:30am 11.3 9.0 10.5 95 0.4 NW 13 15 7 8 1020.5 1020.4 0.0
30/03:00am 11.3 9.0 10.5 95 0.4 NW 13 15 7 8 1020.6 1020.5 0.0
30/02:30am 11.6 9.4 10.8 95 0.4 NW 13 15 7 8 1020.7 1020.6 0.0
30/02:00am 11.5 9.7 10.7 95 0.4 WSW 11 13 6 7 1020.9 1020.8 0.0
30/01:30am 11.3 9.4 10.5 95 0.4 WSW 11 11 6 6 1021.1 1021.0 0.0
30/01:00am 11.6 9.4 10.8 95 0.4 WSW 13 13 7 7 1021.0 1020.9 0.0
30/12:30am 11.9 10.5 11.0 94 0.5 WSW 9 11 5 6 1021.1 1021.0 0.0
30/12:00am 12.0 9.8 10.9 93 0.6 WSW 13 13 7 7 1021.1 1021.0 0.0
 
Date/Time
EST
Temp
°C
App
Temp
°C
Dew
Point
°C
Rel
Hum
%
Delta-T
°C
Wind Press
QNH
hPa
Press
MSL
hPa
Rain since
9am
mm
Dir  Spd
km/h
Gust
km/h
Spd
kts
Gust
kts
29/11:30pm 12.2 10.5 11.1 93 0.6 WSW 11 11 6 6 1021.0 1020.9 0.0
29/11:00pm 12.6 11.7 11.5 93 0.6 WSW 7 9 4 5 1021.0 1020.9 0.0
29/10:30pm 12.7 11.8 11.4 92 0.7 WSW 7 9 4 5 1020.9 1020.8 0.0
29/10:00pm 12.8 11.9 11.5 92 0.7 WSW 7 7 4 4 1021.0 1020.9 0.0
29/09:30pm 12.6 11.7 11.2 91 0.7 WSW 7 7 4 4 1020.9 1020.8 0.0
29/09:00pm 12.4 11.4 11.0 91 0.7 WSW 7 9 4 5 1020.6 1020.5 0.0
29/08:30pm 12.7 12.3 11.1 90 0.8 WSW 4 7 2 4 1020.4 1020.3 0.0
29/08:00pm 12.6 11.7 10.7 88 1.0 WSW 6 7 3 4 1020.3 1020.2 0.0
29/07:30pm 13.5 13.9 11.2 86 1.2 CALM 0 0 0 0 1020.2 1020.1 0.0
29/07:00pm 14.5 14.7 12.0 85 1.3 WSW 2 7 1 4 1020.1 1020.0 0.0
29/06:30pm 14.9 15.7 12.4 85 1.4 CALM 0 0 0 0 1019.8 1019.7 0.0
29/06:00pm 15.0 14.3 11.4 79 1.9 S 6 7 3 4 1019.4 1019.3 0.0
29/05:30pm 16.9 16.4 12.0 73 2.7 SSE 6 7 3 4 1019.0 1018.9 0.0
29/05:00pm 17.9 16.3 11.7 67 3.4 SE 11 15 6 8 1018.6 1018.5 0.0
29/04:30pm 19.0 16.7 11.6 62 4.1 SE 15 19 8 10 1018.3 1018.2 0.0
29/04:00pm 19.5 16.7 11.5 60 4.4 SSE 17 19 9 10 1018.0 1017.9 0.0
29/03:30pm 20.0 17.1 11.0 56 4.9 SSE 17 20 9 11 1017.9 1017.8 0.0
29/03:00pm 20.1 16.8 10.8 55 5.1 SE 19 22 10 12 1017.9 1017.8 0.0
29/02:30pm 22.1 19.3 8.6 42 7.1 WSW 13 20 7 11 1017.8 1017.7 0.0
29/02:00pm 21.9 18.7 8.4 42 7.1 W 15 20 8 11 1017.8 1017.7 0.0
29/01:30pm 21.7 17.9 8.9 44 6.8 WNW 19 26 10 14 1017.9 1017.8 0.0
29/01:00pm 21.2 18.0 9.8 48 6.1 WNW 17 26 9 14 1018.4 1018.3 0.0
29/12:30pm 20.6 17.7 9.8 50 5.8 W 15 22 8 12 1019.0 1018.9 0.0
29/12:00pm 20.2 17.6 10.6 54 5.2 W 15 26 8 14 1019.4 1019.3 0.0
29/11:30am 19.3 15.6 9.5 53 5.2 NW 19 26 10 14 1019.7 1019.6 0.0
29/11:00am 19.0 14.8 9.8 55 4.9 WNW 22 30 12 16 1020.2 1020.1 0.0
29/10:30am 17.5 13.5 8.9 57 4.5 WNW 20 30 11 16 1020.5 1020.4 0.0
29/10:00am 16.4 12.1 9.3 63 3.7 WNW 22 30 12 16 1020.8 1020.7 0.0
29/09:30am 15.3 11.7 9.9 70 2.8 NW 19 26 10 14 1020.8 1020.7 0.0
29/09:00am 13.9 8.8 9.1 73 2.4 WNW 26 33 14 18 1020.9 1020.8 0.0
29/08:30am 12.9 8.8 8.8 76 2.1 WNW 20 33 11 18 1020.9 1020.8 0.0
29/08:00am 12.1 8.3 9.1 82 1.5 NW 19 26 10 14 1020.7 1020.6 0.0
29/07:30am 10.8 7.6 8.6 86 1.1 WNW 15 19 8 10 1020.8 1020.7 0.0
29/07:00am 9.8 6.9 8.2 90 0.8 WNW 13 15 7 8 1020.5 1020.4 0.0
29/06:30am 9.1 6.2 8.0 93 0.5 NW 13 15 7 8 1019.9 1019.8 0.0
29/06:00am 9.3 6.3 7.9 91 0.7 NW 13 15 7 8 1019.8 1019.7 0.0
29/05:30am 9.3 6.0 7.9 91 0.7 NW 15 19 8 10 1019.7 1019.6 0.0
29/05:00am 9.4 6.5 8.0 91 0.7 NW 13 17 7 9 1019.7 1019.6 0.0
29/04:30am 10.0 6.7 8.1 88 0.9 NW 15 19 8 10 1019.5 1019.4 0.0
29/04:00am 10.2 6.6 8.3 88 0.9 NW 17 20 9 11 1019.3 1019.2 0.0
29/03:30am 9.9 7.1 8.7 92 0.6 NW 13 15 7 8 1019.4 1019.3 0.0
29/03:00am 9.9 6.8 8.8 93 0.5 WNW 15 17 8 9 1019.6 1019.5 0.0
29/02:30am 10.1 7.0 9.0 93 0.5 NW 15 19 8 10 1019.6 1019.5 0.0
29/02:00am 10.4 7.8 9.2 92 0.6 NW 13 17 7 9 1019.9 1019.8 0.0
29/01:30am 10.6 7.5 9.0 90 0.8 NW 15 17 8 9 1020.0 1019.9 0.0
29/01:00am 11.0 8.0 9.3 89 0.8 NW 15 17 8 9 1020.3 1020.2 0.0
29/12:30am 11.0 8.5 9.6 91 0.7 NW 13 15 7 8 1020.4 1020.3 0.0
29/12:00am 10.7 8.4 9.1 90 0.8 NW 11 13 6 7 1020.6 1020.5 0.0
 
Date/Time
EST
Temp
°C
App
Temp
°C
Dew
Point
°C
Rel
Hum
%
Delta-T
°C
Wind Press
QNH
hPa
Press
MSL
hPa
Rain since
9am
mm
Dir  Spd
km/h
Gust
km/h
Spd
kts
Gust
kts
28/11:30pm 11.2 9.0 9.5 89 0.9 NW 11 13 6 7 1020.7 1020.6 0.0
28/11:00pm 11.4 8.9 9.7 89 0.9 WNW 13 17 7 9 1020.9 1020.8 0.0
28/10:30pm 11.6 9.1 9.7 88 1.0 WSW 13 15 7 8 1021.0 1020.9 0.0
28/10:00pm 11.5 9.8 9.8 89 0.9 WSW 9 11 5 6 1021.2 1021.1 0.0
28/09:30pm 11.6 9.4 9.5 87 1.1 WSW 11 13 6 7 1021.2 1021.1 0.0
28/09:00pm 12.0 10.2 9.6 85 1.2 WSW 9 11 5 6 1021.2 1021.1 0.0
28/08:30pm 12.4 10.6 9.4 82 1.5 WSW 9 9 5 5 1021.1 1021.0 0.0
28/08:00pm 12.3 10.9 9.7 84 1.3 WSW 7 9 4 5 1021.0 1020.9 0.0
28/07:30pm 12.3 10.9 9.7 84 1.3 WSW 7 9 4 5 1020.8 1020.7 0.0
28/07:00pm 14.1 12.2 9.1 72 2.5 WSW 9 13 5 7 1020.9 1020.8 0.0
28/06:30pm 14.1 11.9 9.3 73 2.5 S 11 15 6 8 1020.9 1020.8 0.0
28/06:00pm 14.5 12.2 8.9 69 2.8 S 11 13 6 7 1020.5 1020.4 0.0
28/05:30pm 15.3 13.0 9.0 66 3.2 WSW 11 13 6 7 1020.3 1020.2 0.0
28/05:00pm 16.8 14.4 8.8 59 4.1 S 11 17 6 9 1020.0 1019.9 0.0
28/04:30pm 18.1 14.9 8.4 53 5.0 S 15 20 8 11 1020.0 1019.9 0.0
28/04:00pm 18.7 14.7 8.1 50 5.4 S 19 26 10 14 1020.1 1020.0 0.0
28/03:30pm 18.9 14.7 8.3 50 5.5 S 20 26 11 14 1020.2 1020.1 0.0
28/03:00pm 19.0 14.2 8.9 52 5.3 S 24 30 13 16 1020.2 1020.1 0.0
28/02:30pm 19.0 14.2 8.9 52 5.3 S 24 32 13 17 1020.1 1020.0 0.0
28/02:00pm 19.4 14.1 8.4 49 5.7 S 26 33 14 18 1020.2 1020.1 0.0
28/01:30pm 19.2 14.4 10.2 56 4.8 S 26 37 14 20 1020.2 1020.1 0.0
28/01:00pm 19.2 14.5 10.5 57 4.7 SSW 26 33 14 18 1020.4 1020.3 0.0
28/12:30pm 19.1 14.4 10.6 58 4.6 S 26 35 14 19 1020.8 1020.7 0.0
28/12:00pm 19.1 14.6 10.1 56 4.8 SSW 24 37 13 20 1021.3 1021.2 0.0
28/11:30am 19.2 15.1 10.2 56 4.8 SSW 22 32 12 17 1021.5 1021.4 0.0
28/11:00am 18.5 14.8 10.1 58 4.5 SSW 20 32 11 17 1021.8 1021.7 0.0
28/10:30am 17.8 14.1 9.4 58 4.4 SW 19 28 10 15 1022.0 1021.9 0.0
28/10:00am 17.4 13.1 9.3 59 4.2 SW 22 30 12 16 1022.0 1021.9 0.0
28/09:30am 16.7 12.7 9.1 61 3.9 SW 20 28 11 15 1022.0 1021.9 0.0
28/09:00am 16.0 12.4 8.2 60 3.9 WSW 17 24 9 13 1021.9 1021.8 3.8
28/08:30am 15.1 11.4 7.9 62 3.6 WSW 17 24 9 13 1021.8 1021.7 3.8
28/08:00am 14.0 10.5 7.3 64 3.3 WSW 15 19 8 10 1021.4 1021.3 3.8
28/07:30am 13.0 9.1 7.2 68 2.8 W 17 26 9 14 1021.1 1021.0 3.8
28/07:00am 13.2 9.5 8.1 71 2.5 W 17 20 9 11 1020.6 1020.5 3.8
28/06:30am 13.4 10.7 8.9 74 2.3 W 13 15 7 8 1020.1 1020.0 3.8
28/06:00am 13.7 11.4 9.0 73 2.4 WSW 11 19 6 10 1019.8 1019.7 3.8
28/05:30am 14.2 10.4 9.0 71 2.6 SW 19 24 10 13 1019.3 1019.2 3.8
28/05:00am 14.2 11.1 9.0 71 2.6 WSW 15 22 8 12 1019.1 1019.0 3.8
28/04:30am 14.2 10.4 9.2 72 2.5 WSW 19 30 10 16 1018.9 1018.8 3.8
28/04:00am 14.2 10.8 9.2 72 2.5 WSW 17 24 9 13 1018.7 1018.6 3.8
28/03:30am 14.2 10.1 10.0 76 2.2 WSW 22 32 12 17 1018.4 1018.3 3.8
28/03:00am 13.5 10.1 10.5 82 1.6 WSW 19 26 10 14 1018.4 1018.3 3.8
28/02:30am 13.1 9.8 10.8 86 1.2 WSW 19 26 10 14 1018.2 1018.1 3.8
28/02:00am 13.4 10.1 10.8 84 1.4 WSW 19 28 10 15 1018.1 1018.0 3.8
28/01:30am 13.3 10.3 10.7 84 1.4 W 17 22 9 12 1018.1 1018.0 3.8
28/01:00am 12.9 10.3 10.8 87 1.1 W 15 17 8 9 1018.1 1018.0 3.8
28/12:30am 12.7 10.1 10.8 88 1.0 W 15 19 8 10 1018.0 1017.9 3.8
28/12:00am 12.4 9.0 10.6 89 0.9 W 19 24 10 13 1017.9 1017.8 3.8
 
Date/Time
EST
Temp
°C
App
Temp
°C
Dew
Point
°C
Rel
Hum
%
Delta-T
°C
Wind Press
QNH
hPa
Press
MSL
hPa
Rain since
9am
mm
Dir  Spd
km/h
Gust
km/h
Spd
kts
Gust
kts
27/11:30pm 12.8 10.3 11.0 89 0.9 NW 15 19 8 10 1017.7 1017.6 3.4
27/11:00pm 13.1 10.8 11.7 91 0.7 WNW 15 17 8 9 1017.8 1017.7 3.0
27/10:30pm 13.0 11.0 11.4 90 0.8 WSW 13 24 7 13 1018.2 1018.1 3.0
27/10:00pm 13.2 11.1 11.1 87 1.1 W 13 15 7 8 1018.2 1018.1 2.2
27/09:30pm 13.5 11.9 11.7 89 1.0 WSW 11 15 6 8 1018.1 1018.0 1.6
27/09:00pm 13.6 12.2 11.0 84 1.4 SW 9 13 5 7 1018.0 1017.9 1.0
27/08:30pm 14.7 11.1 9.9 73 2.5 WSW 19 30 10 16 1017.9 1017.8 0.0
27/08:00pm 14.4 12.4 10.2 76 2.2 W 11 13 6 7 1017.7 1017.6 0.0
27/07:30pm 14.7 12.0 9.1 69 2.9 W 13 15 7 8 1017.4 1017.3 0.0
27/07:00pm 14.0 10.9 9.0 72 2.5 W 15 17 8 9 1017.0 1016.9 0.0
27/06:30pm 13.5 10.8 8.8 73 2.4 WSW 13 15 7 8 1016.6 1016.5 0.0
27/06:00pm 13.5 10.7 8.6 72 2.5 WSW 13 13 7 7 1016.3 1016.2 0.0
27/05:30pm 14.5 12.0 8.2 66 3.2 WSW 11 13 6 7 1016.0 1015.9 0.0
27/05:00pm 16.1 13.6 8.1 59 4.0 WSW 11 13 6 7 1015.7 1015.6 0.0
27/04:30pm 17.5 14.1 7.5 52 5.0 SSW 15 19 8 10 1015.3 1015.2 0.0
27/04:00pm 17.8 13.5 7.0 49 5.4 SSW 19 26 10 14 1015.1 1015.0 0.0
27/03:30pm 18.1 13.6 6.9 48 5.6 S 20 28 11 15 1015.0 1014.9 0.0

Other Formats:

Comma delimited format used in spreadsheet applications
http://www.bom.gov.au/fwo/IDN60801/IDN60801.94776.axf

JavaScript Object Notation format (JSON) in row-major order
http://www.bom.gov.au/fwo/IDN60801/IDN60801.94776.json